Time;durP1;ratioP1;P1;durP2;ratioP2;P2;SDS_P1;SDS_P2;PMS_P1;PMS_P2;Temp;Humidity;BMP_temperature;BMP_pressure;BME280_temperature;BME280_humidity;BME280_pressure;Samples;Min_cycle;Max_cycle;Signal;HPM_P1;HPM_P2
2023/09/02 00:00:05;;;;;;;0.00;0.00;;;17.30;99.90;;;;;;5049807;28;20200;-62
2023/09/02 00:02:31;;;;;;;0.00;0.00;;;17.30;99.90;;;;;;5052426;28;20235;-62
2023/09/02 00:04:56;;;;;;;0.30;0.30;;;17.30;99.90;;;;;;5052502;28;20224;-62
2023/09/02 00:07:22;;;;;;;0.00;0.00;;;17.30;99.90;;;;;;5052462;28;20294;-62
2023/09/02 00:09:47;;;;;;;0.00;0.00;;;17.30;99.90;;;;;;5051238;28;20567;-62
2023/09/02 00:12:13;;;;;;;0.00;0.00;;;17.20;99.90;;;;;;5052482;28;20181;-62
2023/09/02 00:14:38;;;;;;;0.00;0.00;;;17.20;99.90;;;;;;5052504;28;20240;-62
2023/09/02 00:17:04;;;;;;;0.00;0.00;;;17.10;99.90;;;;;;5051331;28;20545;-62
2023/09/02 00:19:29;;;;;;;0.00;0.00;;;17.10;99.90;;;;;;5052208;28;20170;-62
2023/09/02 00:21:56;;;;;;;0.00;0.00;;;17.10;99.90;;;;;;5052327;28;20271;-62
2023/09/02 00:24:21;;;;;;;0.00;0.00;;;17.10;99.90;;;;;;5052283;28;20177;-62
2023/09/02 00:26:47;;;;;;;0.00;0.00;;;17.00;99.90;;;;;;5052161;28;20180;-62
2023/09/02 00:29:12;;;;;;;0.00;0.00;;;17.00;99.90;;;;;;5051813;28;20186;-62
2023/09/02 00:31:38;;;;;;;0.00;0.00;;;17.00;99.90;;;;;;5050746;28;20232;-62
2023/09/02 00:34:03;;;;;;;0.00;0.00;;;17.00;99.90;;;;;;5052012;28;20319;-62
2023/09/02 00:36:30;;;;;;;0.00;0.00;;;16.90;99.90;;;;;;5052319;28;20255;-62
2023/09/02 00:38:57;;;;;;;0.00;0.00;;;16.90;99.90;;;;;;5052065;28;20177;-62
2023/09/02 00:41:31;;;;;;;0.00;0.00;;;16.90;99.90;;;;;;5052084;28;20546;-62
2023/09/02 00:43:57;;;;;;;0.00;0.00;;;16.90;99.90;;;;;;5051737;28;20201;-62
2023/09/02 00:46:23;;;;;;;0.00;0.00;;;16.80;99.90;;;;;;5052135;28;20197;-62
2023/09/02 00:48:49;;;;;;;0.00;0.00;;;16.80;99.90;;;;;;5051775;28;20721;-61
2023/09/02 00:51:15;;;;;;;0.00;0.00;;;16.80;99.90;;;;;;5051734;28;20173;-62
2023/09/02 00:53:40;;;;;;;0.00;0.00;;;16.70;99.90;;;;;;5051432;28;20204;-62
2023/09/02 00:56:07;;;;;;;0.00;0.00;;;16.70;99.90;;;;;;5051368;28;20223;-62
2023/09/02 00:58:34;;;;;;;0.00;0.00;;;16.70;99.90;;;;;;5051565;28;20231;-62
2023/09/02 01:01:02;;;;;;;0.00;0.00;;;16.70;99.90;;;;;;5050546;28;20187;-62
2023/09/02 01:03:28;;;;;;;0.00;0.00;;;16.60;99.90;;;;;;5051657;28;20188;-62
2023/09/02 01:05:54;;;;;;;0.00;0.00;;;16.60;99.90;;;;;;5051183;28;20272;-62
2023/09/02 01:08:19;;;;;;;0.00;0.00;;;16.50;99.90;;;;;;5051056;28;20570;-62
2023/09/02 01:10:45;;;;;;;0.00;0.00;;;16.50;99.90;;;;;;5051024;28;20724;-62
2023/09/02 01:13:11;;;;;;;0.00;0.00;;;16.50;99.90;;;;;;5051298;28;20337;-62
2023/09/02 01:15:37;;;;;;;0.00;0.00;;;16.50;99.90;;;;;;5051274;28;20260;-61
2023/09/02 01:18:03;;;;;;;0.00;0.00;;;16.40;99.90;;;;;;5049855;28;20184;-62
2023/09/02 01:20:56;;;;;;;0.00;0.00;;;16.40;99.90;;;;;;5050475;28;20192;-61
2023/09/02 01:23:41;;;;;;;0.00;0.00;;;16.40;99.90;;;;;;5051085;28;20188;-62
2023/09/02 01:26:23;;;;;;;0.00;0.00;;;16.40;99.90;;;;;;5050551;28;20249;-62
2023/09/02 01:28:55;;;;;;;0.00;0.00;;;16.30;99.90;;;;;;5051419;28;20256;-62
2023/09/02 01:31:23;;;;;;;0.00;0.00;;;16.30;99.90;;;;;;5051010;28;20221;-62
2023/09/02 01:33:52;;;;;;;0.00;0.00;;;16.30;99.90;;;;;;5050810;28;20247;-62
2023/09/02 01:36:20;;;;;;;0.00;0.00;;;16.30;99.90;;;;;;5051006;28;20683;-62
2023/09/02 01:38:46;;;;;;;0.00;0.00;;;16.20;99.90;;;;;;5049915;28;20269;-62
2023/09/02 01:41:14;;;;;;;0.00;0.00;;;16.20;99.90;;;;;;5050797;28;20759;-61
2023/09/02 01:43:39;;;;;;;0.10;0.10;;;16.20;99.90;;;;;;5050985;28;20268;-62
2023/09/02 01:46:07;;;;;;;0.00;0.00;;;16.10;99.90;;;;;;5050655;28;20253;-61
2023/09/02 01:48:34;;;;;;;0.00;0.00;;;16.10;99.90;;;;;;5051062;28;20181;-62
2023/09/02 01:51:00;;;;;;;0.00;0.00;;;16.10;99.90;;;;;;5050839;28;20235;-61
2023/09/02 01:53:26;;;;;;;0.00;0.00;;;16.00;99.90;;;;;;5050216;28;20294;-62
2023/09/02 01:55:53;;;;;;;0.00;0.00;;;16.10;99.90;;;;;;5049802;28;20185;-62
2023/09/02 01:58:18;;;;;;;0.28;0.15;;;16.00;99.90;;;;;;5050579;28;20220;-62
2023/09/02 02:00:44;;;;;;;0.00;0.00;;;16.10;99.90;;;;;;5050452;28;20224;-62
2023/09/02 02:03:19;;;;;;;0.00;0.00;;;16.10;99.90;;;;;;5050161;28;20185;-62
2023/09/02 02:05:53;;;;;;;0.00;0.00;;;16.10;99.90;;;;;;5049688;28;20173;-62
2023/09/02 02:08:37;;;;;;;0.00;0.00;;;16.00;99.90;;;;;;5045077;28;20264;-62
2023/09/02 02:11:04;;;;;;;0.00;0.00;;;16.00;99.90;;;;;;5041039;28;20606;-62
2023/09/02 02:13:30;;;;;;;0.00;0.00;;;16.00;99.90;;;;;;5050525;28;20217;-62
2023/09/02 02:15:56;;;;;;;0.00;0.00;;;16.00;99.90;;;;;;5049940;28;20268;-62
2023/09/02 02:18:21;;;;;;;0.00;0.00;;;16.00;99.90;;;;;;5049857;28;20328;-63
2023/09/02 02:20:58;;;;;;;0.00;0.00;;;16.00;99.90;;;;;;5050195;28;20177;-62
2023/09/02 02:23:23;;;;;;;0.00;0.00;;;16.00;99.90;;;;;;5050415;28;20230;-62
2023/09/02 02:25:49;;;;;;;0.00;0.00;;;16.00;99.90;;;;;;5048675;28;20527;-62
2023/09/02 02:28:14;;;;;;;0.00;0.00;;;15.90;99.90;;;;;;5049963;28;20203;-62
2023/09/02 02:30:40;;;;;;;0.00;0.00;;;15.90;99.90;;;;;;5048465;28;20225;-62
2023/09/02 02:33:05;;;;;;;0.00;0.00;;;15.90;99.90;;;;;;5053572;28;20188;-62
2023/09/02 02:35:32;;;;;;;0.00;0.00;;;15.90;99.90;;;;;;5053987;28;20645;-62
2023/09/02 02:37:59;;;;;;;0.00;0.00;;;15.90;99.90;;;;;;5053896;28;20216;-63
2023/09/02 02:40:25;;;;;;;0.00;0.00;;;15.90;99.90;;;;;;5054040;28;20173;-62
2023/09/02 02:42:51;;;;;;;0.00;0.00;;;15.90;99.90;;;;;;5054555;28;20173;-62
2023/09/02 02:45:16;;;;;;;0.00;0.00;;;15.80;99.90;;;;;;5053553;28;20672;-62
2023/09/02 02:47:42;;;;;;;0.00;0.00;;;15.80;99.90;;;;;;5053032;28;20237;-62
2023/09/02 02:50:08;;;;;;;0.00;0.00;;;15.80;99.90;;;;;;5053706;28;20189;-62
2023/09/02 02:52:33;;;;;;;0.00;0.00;;;15.80;99.90;;;;;;5053788;28;20216;-62
2023/09/02 02:54:59;;;;;;;0.00;0.00;;;15.80;99.90;;;;;;5053413;28;20217;-62
2023/09/02 02:57:24;;;;;;;0.00;0.00;;;15.80;99.90;;;;;;5053474;28;20181;-62
2023/09/02 02:59:53;;;;;;;0.00;0.00;;;15.80;99.90;;;;;;5054038;28;20641;-62
2023/09/02 03:02:19;;;;;;;0.00;0.00;;;15.80;99.90;;;;;;5053150;28;20181;-61
2023/09/02 03:04:48;;;;;;;0.00;0.00;;;15.80;99.90;;;;;;5052337;28;20174;-62
2023/09/02 03:07:14;;;;;;;0.00;0.00;;;15.70;99.90;;;;;;5053172;28;20186;-62
2023/09/02 03:09:40;;;;;;;0.00;0.00;;;15.70;99.90;;;;;;5054087;28;20184;-61
2023/09/02 03:12:06;;;;;;;0.00;0.00;;;15.70;99.90;;;;;;5053046;28;20193;-61
2023/09/02 03:14:32;;;;;;;0.00;0.00;;;15.60;99.90;;;;;;5052901;28;20684;-62
2023/09/02 03:16:57;;;;;;;0.00;0.00;;;15.60;99.90;;;;;;5053556;28;20174;-62
2023/09/02 03:19:23;;;;;;;0.00;0.00;;;15.60;99.90;;;;;;5052839;28;20182;-62
2023/09/02 03:21:48;;;;;;;0.00;0.00;;;15.60;99.90;;;;;;5052739;28;20185;-61
2023/09/02 03:24:14;;;;;;;0.00;0.00;;;15.60;99.90;;;;;;5052103;28;20219;-61
2023/09/02 03:26:39;;;;;;;0.00;0.00;;;15.60;99.90;;;;;;5034971;28;20561;-61
2023/09/02 03:29:05;;;;;;;0.00;0.00;;;15.60;99.90;;;;;;5053046;28;20534;-61
2023/09/02 03:31:30;;;;;;;0.05;0.05;;;15.60;99.90;;;;;;5052831;28;20304;-61
2023/09/02 03:33:56;;;;;;;0.00;0.00;;;15.60;99.90;;;;;;5052949;28;20695;-61
2023/09/02 03:36:21;;;;;;;0.00;0.00;;;15.70;99.90;;;;;;5053020;28;20613;-61
2023/09/02 03:38:47;;;;;;;0.10;0.10;;;15.60;99.90;;;;;;5053174;28;20173;-61
2023/09/02 03:41:17;;;;;;;0.00;0.00;;;15.60;99.90;;;;;;5053330;28;20185;-61
2023/09/02 03:43:42;;;;;;;0.10;0.10;;;15.60;99.90;;;;;;5053026;28;20170;-61
2023/09/02 03:46:08;;;;;;;0.00;0.00;;;15.60;99.90;;;;;;5052894;28;20185;-62
2023/09/02 03:48:33;;;;;;;0.00;0.00;;;15.60;99.90;;;;;;5053274;28;20279;-61
2023/09/02 03:51:05;;;;;;;0.00;0.00;;;15.70;99.90;;;;;;5052899;28;20268;-61
2023/09/02 03:53:32;;;;;;;0.00;0.00;;;15.70;99.90;;;;;;5052688;28;20684;-61
2023/09/02 03:55:58;;;;;;;0.15;0.10;;;15.70;99.90;;;;;;5052774;28;20185;-61
2023/09/02 03:58:24;;;;;;;0.00;0.00;;;15.70;99.90;;;;;;5052492;28;20201;-62
2023/09/02 04:00:50;;;;;;;0.00;0.00;;;15.70;99.90;;;;;;5052524;28;20181;-61
2023/09/02 04:03:19;;;;;;;0.00;0.00;;;15.70;99.90;;;;;;5051943;28;20718;-61
2023/09/02 04:05:46;;;;;;;0.00;0.00;;;15.70;99.90;;;;;;5051957;28;20181;-61
2023/09/02 04:08:11;;;;;;;0.00;0.00;;;15.70;99.90;;;;;;5048514;28;20212;-61
2023/09/02 04:10:37;;;;;;;0.00;0.00;;;15.80;99.90;;;;;;5051833;28;20221;-61
2023/09/02 04:13:03;;;;;;;0.30;0.30;;;15.80;99.90;;;;;;5052238;28;20176;-61
2023/09/02 04:15:28;;;;;;;0.00;0.00;;;15.80;99.90;;;;;;5051988;28;20185;-61
2023/09/02 04:17:54;;;;;;;0.30;0.30;;;15.80;99.90;;;;;;5052333;28;20524;-61
2023/09/02 04:20:20;;;;;;;0.00;0.00;;;15.80;99.90;;;;;;5050222;28;20204;-62
2023/09/02 04:22:46;;;;;;;0.00;0.00;;;15.80;99.90;;;;;;5052311;28;20629;-62
2023/09/02 04:25:12;;;;;;;0.00;0.00;;;15.80;99.90;;;;;;5052008;28;20253;-62
2023/09/02 04:27:37;;;;;;;0.00;0.00;;;15.80;99.90;;;;;;5051753;28;20648;-62
2023/09/02 04:30:03;;;;;;;0.00;0.00;;;15.80;99.90;;;;;;5051775;28;20181;-62
2023/09/02 04:32:29;;;;;;;0.00;0.00;;;15.90;99.90;;;;;;5051647;28;20598;-62
2023/09/02 04:34:57;;;;;;;0.00;0.00;;;15.90;99.90;;;;;;5052188;28;20221;-61
2023/09/02 04:37:24;;;;;;;0.00;0.00;;;15.90;99.90;;;;;;5051550;28;20744;-61
2023/09/02 04:39:49;;;;;;;0.00;0.00;;;16.00;99.90;;;;;;5051796;28;20506;-61
2023/09/02 04:42:15;;;;;;;0.00;0.00;;;16.00;99.90;;;;;;5051791;28;20243;-61
2023/09/02 04:44:40;;;;;;;0.30;0.30;;;16.00;99.90;;;;;;5051487;28;20186;-61
2023/09/02 04:47:06;;;;;;;0.00;0.00;;;16.10;99.90;;;;;;5051645;28;20173;-61
2023/09/02 04:49:32;;;;;;;0.00;0.00;;;16.10;99.90;;;;;;5051493;28;20601;-61
2023/09/02 04:51:58;;;;;;;0.00;0.00;;;16.10;99.90;;;;;;5051826;28;20181;-61
2023/09/02 04:54:24;;;;;;;0.00;0.00;;;16.10;99.90;;;;;;5048936;28;20213;-61
2023/09/02 04:56:49;;;;;;;0.08;0.08;;;16.10;99.90;;;;;;5051671;28;20506;-61
2023/09/02 04:59:15;;;;;;;0.00;0.00;;;16.20;99.90;;;;;;5051044;28;20207;-61
2023/09/02 05:01:40;;;;;;;0.00;0.00;;;16.20;99.90;;;;;;5051312;28;20177;-61
2023/09/02 05:04:06;;;;;;;0.00;0.00;;;16.20;99.90;;;;;;5051208;28;20272;-61
2023/09/02 05:06:32;;;;;;;0.00;0.00;;;16.20;99.90;;;;;;5051205;28;20185;-61
2023/09/02 05:08:57;;;;;;;0.00;0.00;;;16.30;99.90;;;;;;5050071;28;20178;-61
2023/09/02 05:11:22;;;;;;;0.00;0.00;;;16.30;99.90;;;;;;5051100;28;20289;-61
2023/09/02 05:13:48;;;;;;;0.00;0.00;;;16.30;99.90;;;;;;5051031;28;20217;-61
2023/09/02 05:16:14;;;;;;;0.00;0.00;;;16.30;99.90;;;;;;5051420;28;20178;-61
2023/09/02 05:18:40;;;;;;;0.25;0.25;;;16.40;99.90;;;;;;5050142;28;20232;-62
2023/09/02 05:21:05;;;;;;;0.00;0.00;;;16.40;99.90;;;;;;5051522;28;20168;-61
2023/09/02 05:23:32;;;;;;;0.00;0.00;;;16.50;99.90;;;;;;5051330;28;20537;-61
2023/09/02 05:25:57;;;;;;;0.00;0.00;;;16.50;99.90;;;;;;5051341;28;20193;-61
2023/09/02 05:28:24;;;;;;;0.00;0.00;;;16.60;99.90;;;;;;5050685;28;20196;-61
2023/09/02 05:30:49;;;;;;;0.00;0.00;;;16.70;99.90;;;;;;5051011;28;20256;-61
2023/09/02 05:33:16;;;;;;;0.00;0.00;;;16.70;99.90;;;;;;5050876;28;20208;-61
2023/09/02 05:35:44;;;;;;;0.00;0.00;;;16.80;99.90;;;;;;5049070;28;20200;-61
2023/09/02 05:38:10;;;;;;;0.08;0.08;;;16.90;99.90;;;;;;5051242;28;20181;-61
2023/09/02 05:40:39;;;;;;;0.00;0.00;;;17.10;99.90;;;;;;5050751;28;20704;-61
2023/09/02 05:43:04;;;;;;;0.00;0.00;;;17.20;99.90;;;;;;5051258;28;20178;-61
2023/09/02 05:45:30;;;;;;;0.00;0.00;;;17.30;99.90;;;;;;5054604;28;20173;-61
2023/09/02 05:47:55;;;;;;;0.00;0.00;;;17.40;99.90;;;;;;5057467;28;20536;-62
2023/09/02 05:50:21;;;;;;;0.00;0.00;;;17.50;99.90;;;;;;5050406;28;20213;-61
2023/09/02 05:52:46;;;;;;;0.00;0.00;;;17.60;99.90;;;;;;5050912;28;20213;-61
2023/09/02 05:55:12;;;;;;;0.00;0.00;;;17.70;99.90;;;;;;5050728;28;20227;-61
2023/09/02 05:57:37;;;;;;;0.00;0.00;;;17.90;99.90;;;;;;5050711;28;20243;-61
2023/09/02 06:00:03;;;;;;;0.00;0.00;;;18.20;99.90;;;;;;5050692;28;20189;-61
2023/09/02 06:02:34;;;;;;;0.00;0.00;;;18.60;99.90;;;;;;5051314;28;20207;-61
2023/09/02 06:05:00;;;;;;;0.00;0.00;;;19.00;99.90;;;;;;5050618;28;20633;-61
2023/09/02 06:07:25;;;;;;;0.00;0.00;;;19.50;99.90;;;;;;5051031;28;20629;-61
2023/09/02 06:09:51;;;;;;;0.00;0.00;;;20.00;99.90;;;;;;5050822;28;20181;-61
2023/09/02 06:12:16;;;;;;;0.00;0.00;;;20.50;99.90;;;;;;5048915;28;20177;-62
2023/09/02 06:14:42;;;;;;;0.00;0.00;;;21.00;99.90;;;;;;5049415;28;20209;-62
2023/09/02 06:17:08;;;;;;;0.00;0.00;;;21.40;99.90;;;;;;5042445;28;20197;-62
2023/09/02 06:19:34;;;;;;;0.00;0.00;;;21.80;99.90;;;;;;5044421;28;20186;-62
2023/09/02 06:22:00;;;;;;;0.00;0.00;;;22.10;99.90;;;;;;5047139;28;20170;-61
2023/09/02 06:24:27;;;;;;;0.00;0.00;;;22.40;99.90;;;;;;5039829;28;20186;-61
2023/09/02 06:26:52;;;;;;;0.00;0.00;;;22.50;99.90;;;;;;5037928;28;20256;-62
2023/09/02 06:29:18;;;;;;;0.00;0.00;;;22.60;99.90;;;;;;5050731;28;20304;-61
2023/09/02 06:31:43;;;;;;;0.00;0.00;;;22.90;99.90;;;;;;5049669;28;20278;-61
2023/09/02 06:34:09;;;;;;;0.00;0.00;;;23.30;99.90;;;;;;5030784;28;20213;-62
2023/09/02 06:36:36;;;;;;;0.00;0.00;;;23.70;99.90;;;;;;5030818;28;20202;-61
2023/09/02 06:39:01;;;;;;;0.00;0.00;;;24.10;99.90;;;;;;5037541;28;20248;-61
2023/09/02 06:41:27;;;;;;;0.00;0.00;;;24.40;99.90;;;;;;5049810;28;20201;-61
2023/09/02 06:43:52;;;;;;;0.00;0.00;;;24.70;99.90;;;;;;5050800;28;20182;-60
2023/09/02 06:46:19;;;;;;;0.00;0.00;;;25.20;99.90;;;;;;5050296;28;20184;-63
2023/09/02 06:48:45;;;;;;;0.00;0.00;;;25.60;99.90;;;;;;5050330;28;20644;-61
2023/09/02 06:51:11;;;;;;;0.00;0.00;;;26.00;99.90;;;;;;5050700;28;20174;-61
2023/09/02 06:53:37;;;;;;;0.00;0.00;;;26.40;99.90;;;;;;5050071;28;20270;-63
2023/09/02 06:56:07;;;;;;;0.00;0.00;;;26.80;99.90;;;;;;5050325;28;20240;-62
2023/09/02 06:58:33;;;;;;;0.00;0.00;;;27.20;99.90;;;;;;5050774;28;20256;-64
2023/09/02 07:00:58;;;;;;;0.00;0.00;;;27.50;99.90;;;;;;5050708;28;20273;-64
2023/09/02 07:03:24;;;;;;;0.00;0.00;;;27.80;99.30;;;;;;5050172;28;20170;-62
2023/09/02 07:05:49;;;;;;;0.00;0.00;;;28.10;98.40;;;;;;5050193;28;20195;-62
2023/09/02 07:08:15;;;;;;;0.00;0.00;;;28.60;98.10;;;;;;5049621;28;20260;-63
2023/09/02 07:10:41;;;;;;;0.00;0.00;;;28.80;96.30;;;;;;5050426;28;20178;-63
2023/09/02 07:13:06;;;;;;;0.00;0.00;;;29.00;96.20;;;;;;5050368;28;20528;-63
2023/09/02 07:15:34;;;;;;;0.00;0.00;;;29.40;95.80;;;;;;5050458;28;20196;-63
2023/09/02 07:18:00;;;;;;;0.00;0.00;;;29.70;95.10;;;;;;5051855;28;20192;-62
2023/09/02 07:20:25;;;;;;;0.00;0.00;;;29.90;95.00;;;;;;5054097;28;20633;-61
2023/09/02 07:22:51;;;;;;;0.00;0.00;;;30.20;94.60;;;;;;5054010;28;20174;-63
2023/09/02 07:25:16;;;;;;;0.00;0.00;;;30.60;93.40;;;;;;5053397;28;20188;-61
2023/09/02 07:27:42;;;;;;;0.00;0.00;;;30.90;92.80;;;;;;5055301;28;20213;-62
2023/09/02 07:30:08;;;;;;;0.00;0.00;;;31.20;92.00;;;;;;5064700;28;20213;-61
2023/09/02 07:32:33;;;;;;;0.00;0.00;;;31.30;91.90;;;;;;5053061;28;20188;-62
2023/09/02 07:34:59;;;;;;;0.00;0.00;;;31.30;90.60;;;;;;5057302;28;20300;-63
2023/09/02 07:37:24;;;;;;;0.00;0.00;;;31.30;90.70;;;;;;5066502;28;20263;-61
2023/09/02 07:39:50;;;;;;;0.00;0.00;;;31.50;90.50;;;;;;5073506;28;20632;-62
2023/09/02 07:42:15;;;;;;;0.00;0.00;;;31.50;90.50;;;;;;5072149;28;20639;-62
2023/09/02 07:44:41;;;;;;;0.00;0.00;;;31.50;89.60;;;;;;5062218;28;20186;-62
2023/09/02 07:47:06;;;;;;;0.00;0.00;;;31.50;87.60;;;;;;5052581;28;20204;-63
2023/09/02 07:49:32;;;;;;;0.00;0.00;;;31.60;84.40;;;;;;5052811;28;20221;-63
2023/09/02 07:51:57;;;;;;;0.00;0.00;;;31.60;84.50;;;;;;5052766;28;20185;-63
2023/09/02 07:54:23;;;;;;;0.00;0.00;;;31.50;83.10;;;;;;5053081;28;20680;-63
2023/09/02 07:56:48;;;;;;;0.00;0.00;;;31.60;84.40;;;;;;5053042;28;20177;-63
2023/09/02 07:59:14;;;;;;;0.00;0.00;;;31.80;85.30;;;;;;5052000;28;20196;-63
2023/09/02 08:01:39;;;;;;;0.00;0.00;;;32.10;82.70;;;;;;5052818;28;20189;-63
2023/09/02 08:04:05;;;;;;;0.00;0.00;;;32.20;79.90;;;;;;5052270;28;20196;-63
2023/09/02 08:06:31;;;;;;;0.00;0.00;;;31.90;80.80;;;;;;5052277;28;20174;-63
2023/09/02 08:08:56;;;;;;;0.00;0.00;;;31.80;81.30;;;;;;5052083;28;20687;-64
2023/09/02 08:11:22;;;;;;;0.00;0.00;;;31.60;80.00;;;;;;5052711;28;20189;-63
2023/09/02 08:13:47;;;;;;;0.00;0.00;;;31.40;81.90;;;;;;5052091;28;20209;-63
2023/09/02 08:16:13;;;;;;;0.00;0.00;;;31.20;82.40;;;;;;5052032;28;20177;-63
2023/09/02 08:18:38;;;;;;;0.00;0.00;;;31.20;81.70;;;;;;5052599;28;20177;-63
2023/09/02 08:21:11;;;;;;;0.00;0.00;;;31.20;81.00;;;;;;5044559;28;20178;-63
2023/09/02 08:23:38;;;;;;;0.00;0.00;;;31.00;81.30;;;;;;5046894;28;20184;-63
2023/09/02 08:26:13;;;;;;;0.00;0.00;;;31.10;83.40;;;;;;5051475;28;20186;-63
2023/09/02 08:28:44;;;;;;;0.00;0.00;;;31.30;83.50;;;;;;5052403;28;20223;-63
2023/09/02 08:31:11;;;;;;;0.00;0.00;;;31.50;83.30;;;;;;5051858;28;20222;-63
2023/09/02 08:33:37;;;;;;;0.00;0.00;;;31.60;82.90;;;;;;5054446;28;20298;-64
2023/09/02 08:36:03;;;;;;;0.00;0.00;;;31.60;80.50;;;;;;5052629;28;20173;-63
2023/09/02 08:38:29;;;;;;;0.00;0.00;;;31.70;81.10;;;;;;5052606;28;20180;-63
2023/09/02 08:40:57;;;;;;;0.10;0.10;;;31.70;78.70;;;;;;5052100;28;20208;-63
2023/09/02 08:43:25;;;;;;;0.00;0.00;;;31.60;78.90;;;;;;5052353;28;20220;-63
2023/09/02 08:45:55;;;;;;;0.00;0.00;;;31.60;80.70;;;;;;5052298;28;20225;-63
2023/09/02 08:48:24;;;;;;;0.00;0.00;;;31.80;79.20;;;;;;5052492;28;20533;-63
2023/09/02 08:50:53;;;;;;;0.00;0.00;;;32.00;81.20;;;;;;5051974;28;20514;-63
2023/09/02 08:53:25;;;;;;;0.00;0.00;;;32.10;78.30;;;;;;5051888;28;20185;-63
2023/09/02 08:55:51;;;;;;;0.00;0.00;;;32.50;78.50;;;;;;5052323;28;20185;-64
2023/09/02 08:58:17;;;;;;;0.00;0.00;;;32.60;78.70;;;;;;5052354;28;20185;-63
2023/09/02 09:00:44;;;;;;;0.00;0.00;;;32.90;77.00;;;;;;5051908;28;20185;-63
2023/09/02 09:03:11;;;;;;;0.00;0.00;;;33.10;77.90;;;;;;5052209;28;20208;-63
2023/09/02 09:05:42;;;;;;;0.00;0.00;;;33.30;75.90;;;;;;5051811;28;20259;-63
2023/09/02 09:08:08;;;;;;;0.00;0.00;;;33.40;75.80;;;;;;5051750;28;20184;-63
2023/09/02 09:10:35;;;;;;;0.00;0.00;;;33.30;75.90;;;;;;5052035;28;20180;-64
2023/09/02 09:13:04;;;;;;;0.00;0.00;;;33.20;75.80;;;;;;5052131;28;20530;-63
2023/09/02 09:15:32;;;;;;;0.00;0.00;;;33.30;73.50;;;;;;5051894;28;20231;-62
2023/09/02 09:17:58;;;;;;;0.00;0.00;;;33.30;74.30;;;;;;5052040;28;20181;-62
2023/09/02 09:20:24;;;;;;;0.00;0.00;;;33.30;72.40;;;;;;5051869;28;20258;-63
2023/09/02 09:22:50;;;;;;;0.00;0.00;;;33.10;74.50;;;;;;5051203;28;20253;-62
2023/09/02 09:25:17;;;;;;;0.00;0.00;;;32.80;76.60;;;;;;5051659;28;20608;-62
2023/09/02 09:27:42;;;;;;;0.00;0.00;;;32.50;74.90;;;;;;5051341;28;20239;-62
2023/09/02 09:30:27;;;;;;;0.00;0.00;;;32.00;75.50;;;;;;5051382;28;20691;-62
2023/09/02 09:33:05;;;;;;;0.22;0.22;;;32.00;76.70;;;;;;5051894;28;20261;-62
2023/09/02 09:35:34;;;;;;;0.20;0.20;;;32.10;80.10;;;;;;5051382;28;20266;-62
2023/09/02 09:38:01;;;;;;;0.08;0.08;;;32.10;77.80;;;;;;5051766;28;20178;-62
2023/09/02 09:40:31;;;;;;;0.10;0.10;;;32.20;76.30;;;;;;5050896;28;20250;-63
2023/09/02 09:42:57;;;;;;;0.22;0.10;;;32.30;79.60;;;;;;5051565;28;20234;-62
2023/09/02 09:45:23;;;;;;;0.00;0.00;;;32.10;77.30;;;;;;5051360;28;20526;-62
2023/09/02 09:47:48;;;;;;;0.00;0.00;;;32.10;76.10;;;;;;5051125;28;20265;-62
2023/09/02 09:50:16;;;;;;;0.00;0.00;;;32.10;77.80;;;;;;5051255;28;20189;-62
2023/09/02 09:52:59;;;;;;;0.00;0.00;;;32.10;76.10;;;;;;5051497;28;20203;-62
2023/09/02 09:55:25;;;;;;;0.10;0.10;;;32.30;76.40;;;;;;5050824;28;20271;-62
2023/09/02 09:57:57;;;;;;;0.00;0.00;;;32.30;76.70;;;;;;5050707;28;20185;-62
2023/09/02 10:00:23;;;;;;;0.00;0.00;;;32.10;75.80;;;;;;5050927;28;20591;-62
2023/09/02 10:02:53;;;;;;;0.00;0.00;;;31.80;75.50;;;;;;5051224;28;20200;-62
2023/09/02 10:05:32;;;;;;;0.00;0.00;;;31.90;80.00;;;;;;5050983;28;20217;-63
2023/09/02 10:08:05;;;;;;;0.00;0.00;;;31.90;77.60;;;;;;5044138;28;20182;-62
2023/09/02 10:10:35;;;;;;;0.00;0.00;;;31.90;77.40;;;;;;5062003;28;20208;-62
2023/09/02 10:13:02;;;;;;;0.00;0.00;;;32.00;80.60;;;;;;5071182;28;20188;-62
2023/09/02 10:15:28;;;;;;;0.00;0.00;;;32.10;75.70;;;;;;5053671;28;20228;-62
2023/09/02 10:17:56;;;;;;;0.00;0.00;;;32.10;76.60;;;;;;5050833;28;20211;-62
2023/09/02 10:20:25;;;;;;;0.60;0.60;;;32.20;77.70;;;;;;5050887;28;20184;-62
2023/09/02 10:22:51;;;;;;;0.00;0.00;;;32.20;75.30;;;;;;5051144;28;20174;-63
2023/09/02 10:25:27;;;;;;;0.00;0.00;;;32.30;76.00;;;;;;5050416;28;20645;-63
2023/09/02 10:28:17;;;;;;;0.00;0.00;;;32.50;76.20;;;;;;5031130;28;20174;-63
2023/09/02 10:30:48;;;;;;;0.00;0.00;;;32.80;73.30;;;;;;5037862;28;20308;-63
2023/09/02 10:33:29;;;;;;;0.00;0.00;;;33.00;74.50;;;;;;5050299;28;20178;-63
2023/09/02 10:36:03;;;;;;;0.00;0.00;;;33.30;72.90;;;;;;5050967;28;20192;-62
2023/09/02 10:38:33;;;;;;;0.00;0.00;;;33.20;73.90;;;;;;5050847;28;20268;-63
2023/09/02 10:41:12;;;;;;;0.00;0.00;;;32.80;72.40;;;;;;5050753;28;20173;-63
2023/09/02 10:43:39;;;;;;;0.00;0.00;;;32.30;73.70;;;;;;5049681;28;20875;-63
2023/09/02 10:46:07;;;;;;;0.00;0.00;;;32.20;76.30;;;;;;5050940;28;20183;-63
2023/09/02 10:48:36;;;;;;;0.47;0.47;;;32.20;74.60;;;;;;5050799;28;20177;-63
2023/09/02 10:51:04;;;;;;;0.10;0.10;;;32.10;75.20;;;;;;5050370;28;20220;-63
2023/09/02 10:53:48;;;;;;;0.00;0.00;;;32.20;74.80;;;;;;5052890;28;20702;-63
2023/09/02 10:56:34;;;;;;;0.00;0.00;;;32.50;73.80;;;;;;5054511;28;20174;-63
2023/09/02 10:59:02;;;;;;;0.00;0.00;;;32.50;74.00;;;;;;5054132;28;20810;-61
2023/09/02 11:01:49;;;;;;;0.00;0.00;;;32.60;71.70;;;;;;5053826;28;20272;-61
2023/09/02 11:04:35;;;;;;;0.13;0.13;;;32.60;69.90;;;;;;5054492;28;20219;-61
2023/09/02 11:07:19;;;;;;;0.00;0.00;;;32.70;69.40;;;;;;5054284;28;20189;-62
2023/09/02 11:09:53;;;;;;;0.20;0.20;;;32.80;70.40;;;;;;5054287;28;20171;-62
2023/09/02 11:12:19;;;;;;;0.00;0.00;;;33.00;67.90;;;;;;5054079;28;20174;-63
2023/09/02 11:15:06;;;;;;;0.00;0.00;;;33.20;66.80;;;;;;5054239;28;20228;-62
2023/09/02 11:17:31;;;;;;;0.00;0.00;;;33.50;66.60;;;;;;5054332;28;20169;-62
2023/09/02 11:19:59;;;;;;;0.00;0.00;;;33.40;66.40;;;;;;5054347;28;20224;-61
2023/09/02 11:22:50;;;;;;;0.00;0.00;;;33.00;67.20;;;;;;5054138;28;20177;-61
2023/09/02 11:25:31;;;;;;;0.00;0.00;;;32.80;69.30;;;;;;5054125;28;20544;-61
2023/09/02 11:28:02;;;;;;;0.00;0.00;;;32.50;67.90;;;;;;5053022;28;20166;-61
2023/09/02 11:30:30;;;;;;;0.00;0.00;;;32.40;67.70;;;;;;5053382;28;20245;-60
2023/09/02 11:32:56;;;;;;;0.00;0.00;;;32.50;68.70;;;;;;5054024;28;20173;-60
2023/09/02 11:35:34;;;;;;;0.00;0.00;;;32.80;67.30;;;;;;5053710;28;20215;-59
2023/09/02 11:38:00;;;;;;;0.00;0.00;;;32.80;67.20;;;;;;5053564;28;20174;-60
2023/09/02 11:40:26;;;;;;;0.28;0.10;;;32.80;64.80;;;;;;5053788;28;20192;-60
2023/09/02 11:42:59;;;;;;;0.00;0.00;;;33.00;64.40;;;;;;5053811;28;20223;-61
2023/09/02 11:45:31;;;;;;;0.00;0.00;;;33.20;65.30;;;;;;5053600;28;20169;-62
2023/09/02 11:47:56;;;;;;;0.00;0.00;;;33.00;63.00;;;;;;5053499;28;20182;-62
2023/09/02 11:50:23;;;;;;;0.00;0.00;;;32.70;62.40;;;;;;5053522;28;20257;-62
2023/09/02 11:52:52;;;;;;;0.00;0.00;;;32.50;65.90;;;;;;5053622;28;20240;-62
2023/09/02 11:55:18;;;;;;;0.38;0.38;;;32.60;65.70;;;;;;5053352;28;20749;-62
2023/09/02 11:57:45;;;;;;;0.00;0.00;;;32.60;65.50;;;;;;5053462;28;20181;-63
2023/09/02 12:00:17;;;;;;;0.00;0.00;;;32.60;64.10;;;;;;5052418;28;20185;-62
2023/09/02 12:02:44;;;;;;;0.00;0.00;;;32.80;65.30;;;;;;5056070;28;20180;-62
2023/09/02 12:05:10;;;;;;;0.28;0.28;;;32.80;64.00;;;;;;5055823;28;20269;-62
2023/09/02 12:07:37;;;;;;;0.00;0.00;;;32.80;63.40;;;;;;5053339;28;20169;-62
2023/09/02 12:10:09;;;;;;;0.00;0.00;;;32.60;62.50;;;;;;5062246;28;20177;-62
2023/09/02 12:12:42;;;;;;;0.00;0.00;;;32.30;62.80;;;;;;5073348;28;20259;-62
2023/09/02 12:15:15;;;;;;;0.00;0.00;;;32.10;64.00;;;;;;5058976;28;20220;-62
2023/09/02 12:17:42;;;;;;;0.00;0.00;;;32.00;64.50;;;;;;5053194;28;20188;-62
2023/09/02 12:20:09;;;;;;;0.00;0.00;;;32.00;65.60;;;;;;5052989;28;20234;-62
2023/09/02 12:22:36;;;;;;;0.00;0.00;;;32.10;66.40;;;;;;5053090;28;20637;-62
2023/09/02 12:25:22;;;;;;;0.00;0.00;;;32.30;66.10;;;;;;5052933;28;20524;-62
2023/09/02 12:27:48;;;;;;;0.00;0.00;;;32.40;68.00;;;;;;5052793;28;20182;-62
2023/09/02 12:30:26;;;;;;;0.00;0.00;;;32.00;66.20;;;;;;5052654;28;20213;-62
2023/09/02 12:32:51;;;;;;;0.20;0.20;;;31.60;66.80;;;;;;5052972;28;20196;-62
2023/09/02 12:35:17;;;;;;;0.00;0.00;;;31.00;68.30;;;;;;5052682;28;20300;-62
2023/09/02 12:37:42;;;;;;;0.00;0.00;;;30.60;69.30;;;;;;5052655;28;20208;-62
2023/09/02 12:40:14;;;;;;;0.00;0.00;;;30.30;69.50;;;;;;5052574;28;20177;-62
2023/09/02 12:42:41;;;;;;;0.08;0.08;;;30.40;68.70;;;;;;5052654;28;20183;-62
2023/09/02 12:45:08;;;;;;;0.00;0.00;;;30.60;69.70;;;;;;5052502;28;20174;-62
2023/09/02 12:47:36;;;;;;;0.00;0.00;;;30.70;68.30;;;;;;5052157;28;20181;-62
2023/09/02 12:50:02;;;;;;;0.00;0.00;;;30.80;69.60;;;;;;5052059;28;20189;-62